CET,Max TemperatureF,Mean TemperatureF,Min TemperatureF,Max Dew PointF,MeanDew PointF,Min DewpointF,Max Humidity, Mean Humidity, Min Humidity, Max Sea Level PressureIn, Mean Sea Level PressureIn, Min Sea Level PressureIn, Max VisibilityMiles, Mean VisibilityMiles, Min VisibilityMiles, Max Wind SpeedMPH, Mean Wind SpeedMPH, Max Gust SpeedMPH,PrecipitationIn, CloudCover, Events, WindDirDegrees
2012-10-1,49,45,41,46,43,39,100,90,78,30.18,30.12,30.09,16,4,0,13,8,,0.08,8,Fog-Rain,163
2012-10-2,52,47,42,45,42,39,93,85,71,30.15,30.13,30.12,16,7,3,9,4,,0.04,6,Rain,137
2012-10-3,49,44,40,43,41,37,93,83,69,30.18,30.16,30.15,16,5,0,13,5,,0.00,3,Fog,132
2012-10-4,50,44,38,43,39,36,100,83,71,30.15,30.12,30.09,6,5,0,12,6,,0.00,6,Fog,118
2012-10-5,57,48,40,45,39,30,93,77,57,30.24,30.21,30.18,19,9,6,13,6,,0.00,4,,114
2012-10-6,50,45,40,45,41,37,100,84,66,30.24,30.21,30.21,19,4,0,8,4,,0.00,4,Fog,301
2012-10-7,50,46,42,46,41,33,100,80,58,30.18,30.07,30.04,12,5,0,10,4,,0.02,4,Fog,291
2012-10-8,47,43,39,43,28,14,100,57,23,30.12,30.10,30.06,6,3,0,9,5,,0.00,1,Fog,286
2012-10-9,50,45,40,41,39,37,96,82,56,30.04,29.96,29.95,19,4,0,9,5,,0.02,4,Fog-Rain,308
2012-10-10,47,43,39,43,39,36,100,84,69,29.98,29.95,29.92,6,2,0,14,4,,0.12,3,Fog-Rain,30
2012-10-11,43,40,38,39,36,30,93,82,62,29.98,29.96,29.92,6,2,0,16,7,,0.00,4,Fog,95
2012-10-12,46,42,38,41,37,33,93,79,66,29.98,29.92,29.89,12,5,0,9,4,,0.02,5,Fog-Rain,41
2012-10-13,41,39,37,37,36,32,93,86,74,30.01,29.97,29.92,2,0,0,12,5,,0.08,8,Fog-Rain,132
2012-10-14,42,38,35,37,34,30,93,84,63,29.89,29.81,29.77,4,1,0,18,6,,0.08,6,Fog-Rain,162
2012-10-15,40,36,32,36,33,28,93,87,81,29.74,29.67,29.62,0,0,0,18,12,,1.38,,Fog-Rain-Snow,176
2012-10-16,37,33,29,30,28,25,87,80,59,29.98,29.79,29.68,12,3,0,9,6,,0.00,2,Fog-Snow,312
2012-10-17,42,37,32,40,31,21,93,74,41,30.24,30.16,30.04,9,6,0,15,8,,0.00,6,Fog,107
2012-10-18,48,42,37,43,36,12,100,81,14,30.30,30.29,30.27,6,3,0,17,6,,0.00,,Fog,98
2012-10-19,55,47,39,12,-7,-21,19,9,4,30.33,30.33,30.33,12,9,6,10,6,,0.00,,,122
2012-10-20,56,50,44,28,14,-10,38,22,4,30.33,30.30,30.30,6,6,6,8,4,,0.00,,,160
2012-10-21,60,54,47,25,16,8,33,19,8,30.30,30.23,30.21,7,6,6,7,4,,0.00,,,311
2012-10-22,59,54,50,36,29,24,58,35,20,30.24,30.23,30.21,6,6,6,10,4,,0.00,,,99
2012-10-23,54,49,44,40,38,36,76,62,48,30.24,30.24,30.21,7,6,6,12,4,,0.00,,,64
2012-10-24,50,46,42,39,37,32,87,69,44,30.21,30.13,30.09,6,6,6,12,5,,0.00,,,122
2012-10-25,51,46,41,41,38,30,93,71,51,30.04,30.01,29.95,6,6,6,8,6,,0.00,,,321
2012-10-26,41,39,37,39,37,34,100,92,80,29.92,29.76,29.56,6,1,0,14,8,20,0.24,6,Fog-Rain,162
2012-10-27,41,36,30,36,33,27,87,83,78,29.44,29.18,29.12,1,1,0,16,11,,0.75,,Fog-Rain-Snow,193
2012-10-28,32,30,27,27,25,23,86,82,74,29.44,29.32,29.27,0,0,0,13,7,,0.20,,Fog-Snow,189
2012-10-29,26,22,17,35,16,5,87,77,44,29.65,29.56,29.50,7,3,0,17,8,,0.00,5,Fog-Snow,287
2012-10-30,28,22,16,23,13,-11,93,64,13,29.74,29.67,29.65,12,7,6,9,5,,0.00,1,,311
2012-10-31,32,26,21,29,23,17,100,80,59,29.74,29.70,29.50,19,6,0,9,6,,0.20,7,Fog-Snow,129